createdAt,value
2022-07-29T00:01:21.951Z,2.80
2022-07-29T00:03:49.407Z,2.35
2022-07-29T00:06:16.917Z,2.42
2022-07-29T00:08:43.485Z,2.65
2022-07-29T00:11:10.043Z,2.47
2022-07-29T00:13:37.978Z,2.75
2022-07-29T00:16:05.469Z,2.70
2022-07-29T00:18:32.814Z,3.38
2022-07-29T00:21:00.093Z,2.38
2022-07-29T00:23:28.082Z,2.95
2022-07-29T00:25:57.557Z,2.45
2022-07-29T00:28:26.178Z,2.42
2022-07-29T00:30:52.726Z,2.88
2022-07-29T00:33:19.601Z,2.28
2022-07-29T00:35:46.185Z,2.63
2022-07-29T00:38:18.556Z,2.22
2022-07-29T00:40:45.677Z,2.38
2022-07-29T00:43:14.595Z,3.00
2022-07-29T00:45:42.509Z,2.58
2022-07-29T00:48:09.798Z,2.80
2022-07-29T00:50:37.567Z,2.45
2022-07-29T00:53:07.017Z,2.63
2022-07-29T00:55:34.213Z,2.35
2022-07-29T00:58:01.389Z,2.10
2022-07-29T01:00:31.922Z,2.60
2022-07-29T01:02:58.995Z,2.70
2022-07-29T01:05:50.055Z,2.90
2022-07-29T01:08:28.682Z,2.33
2022-07-29T01:13:24.651Z,2.17
2022-07-29T01:15:57.583Z,2.13
2022-07-29T01:18:35.951Z,2.35
2022-07-29T01:21:17.411Z,2.45
2022-07-29T01:24:22.988Z,2.67
2022-07-29T01:27:09.347Z,2.47
2022-07-29T01:29:56.463Z,2.72
2022-07-29T01:32:30.035Z,2.30
2022-07-29T01:35:17.129Z,2.97
2022-07-29T01:37:43.682Z,2.33
2022-07-29T01:40:21.510Z,1.88
2022-07-29T01:42:55.752Z,2.28
2022-07-29T01:45:45.843Z,2.35
2022-07-29T01:48:28.623Z,2.40
2022-07-29T01:51:03.431Z,1.67
2022-07-29T01:53:47.333Z,1.45
2022-07-29T01:56:15.324Z,1.83
2022-07-29T01:58:44.285Z,1.65
2022-07-29T02:01:17.403Z,1.48
2022-07-29T02:03:45.920Z,1.50
2022-07-29T02:06:16.391Z,0.95
2022-07-29T02:08:44.028Z,1.40
2022-07-29T02:11:11.027Z,1.15
2022-07-29T02:13:41.942Z,1.45
2022-07-29T02:16:10.829Z,1.10
2022-07-29T02:18:39.463Z,1.20
2022-07-29T02:21:06.230Z,1.20
2022-07-29T02:23:51.599Z,1.15
2022-07-29T02:26:22.945Z,1.38
2022-07-29T02:28:52.738Z,1.55
2022-07-29T02:31:24.198Z,1.55
2022-07-29T02:33:52.763Z,1.25
2022-07-29T02:36:24.736Z,1.33
2022-07-29T02:38:58.427Z,1.30
2022-07-29T02:41:30.661Z,1.00
2022-07-29T02:44:03.563Z,1.38
2022-07-29T02:46:36.727Z,2.10
2022-07-29T02:49:22.384Z,1.25
2022-07-29T02:52:07.729Z,1.33
2022-07-29T02:54:34.633Z,1.50
2022-07-29T02:57:06.898Z,1.10
2022-07-29T02:59:37.492Z,1.70
2022-07-29T03:02:06.558Z,1.52
2022-07-29T03:04:35.841Z,0.95
2022-07-29T03:07:03.899Z,1.42
2022-07-29T03:09:34.301Z,1.25
2022-07-29T03:12:02.305Z,1.48
2022-07-29T03:14:30.404Z,1.38
2022-07-29T03:16:57.520Z,1.00
2022-07-29T03:19:24.242Z,1.35
2022-07-29T03:21:50.937Z,1.20
2022-07-29T03:24:32.419Z,1.60
2022-07-29T03:27:00.114Z,1.70
2022-07-29T03:29:33.576Z,1.40
2022-07-29T03:32:04.275Z,1.45
2022-07-29T03:34:34.972Z,1.60
2022-07-29T03:37:01.781Z,1.33
2022-07-29T03:39:32.978Z,1.48
2022-07-29T03:42:02.093Z,1.10
2022-07-29T03:44:30.143Z,1.77
2022-07-29T03:47:03.119Z,1.27
2022-07-29T03:49:32.393Z,1.30
2022-07-29T03:51:59.207Z,1.38
2022-07-29T03:54:25.840Z,1.52
2022-07-29T03:56:59.018Z,1.38
2022-07-29T03:59:27.097Z,1.10
2022-07-29T04:01:55.911Z,1.33
2022-07-29T04:04:23.407Z,1.40
2022-07-29T04:06:50.433Z,1.50
2022-07-29T04:09:17.116Z,1.40
2022-07-29T04:12:01.889Z,1.50
2022-07-29T04:14:32.180Z,1.60
2022-07-29T04:16:58.918Z,1.60
2022-07-29T04:19:25.548Z,1.70
2022-07-29T04:21:53.426Z,1.90
2022-07-29T04:24:27.362Z,2.15
2022-07-29T04:26:56.981Z,1.92
2022-07-29T04:29:24.998Z,1.90
2022-07-29T04:31:54.374Z,1.98
2022-07-29T04:34:21.279Z,1.80
2022-07-29T04:36:48.435Z,1.58
2022-07-29T04:39:22.702Z,1.55
2022-07-29T04:41:51.193Z,1.35
2022-07-29T04:44:19.709Z,1.70
2022-07-29T04:46:47.799Z,1.38
2022-07-29T04:49:14.481Z,1.77
2022-07-29T04:51:42.524Z,1.20
2022-07-29T04:54:10.955Z,1.35
2022-07-29T04:56:40.303Z,1.70
2022-07-29T04:59:07.407Z,1.27
2022-07-29T05:01:34.060Z,1.58
2022-07-29T05:04:00.922Z,1.67
2022-07-29T05:06:27.649Z,1.75
2022-07-29T05:08:54.148Z,1.60
2022-07-29T05:11:26.150Z,1.02
2022-07-29T05:13:58.081Z,1.40
2022-07-29T05:16:25.100Z,1.63
2022-07-29T05:18:52.028Z,1.63
2022-07-29T05:21:18.563Z,1.75
2022-07-29T05:23:45.059Z,1.60
2022-07-29T05:26:13.180Z,1.38
2022-07-29T05:28:40.527Z,1.88
2022-07-29T05:31:07.139Z,1.48
2022-07-29T05:33:36.269Z,1.70
2022-07-29T05:36:09.012Z,1.60
2022-07-29T05:38:37.491Z,1.60
2022-07-29T05:41:06.160Z,1.55
2022-07-29T05:43:32.993Z,1.30
2022-07-29T05:45:59.669Z,1.70
2022-07-29T05:48:26.525Z,1.38
2022-07-29T05:50:53.297Z,1.25
2022-07-29T05:53:20.789Z,1.13
2022-07-29T05:55:51.076Z,1.20
2022-07-29T05:58:17.675Z,1.50
2022-07-29T06:00:45.270Z,1.27
2022-07-29T06:03:12.234Z,1.25
2022-07-29T06:05:40.810Z,1.30
2022-07-29T06:08:08.286Z,1.13
2022-07-29T06:10:41.265Z,1.35
2022-07-29T06:13:08.010Z,1.40
2022-07-29T06:15:35.171Z,1.40
2022-07-29T06:18:02.429Z,1.27
2022-07-29T06:20:32.889Z,1.15
2022-07-29T06:23:00.717Z,1.13
2022-07-29T06:25:30.489Z,1.25
2022-07-29T06:27:57.670Z,1.25
2022-07-29T06:30:24.520Z,1.77
2022-07-29T06:32:52.277Z,1.20
2022-07-29T06:35:39.490Z,1.35
2022-07-29T06:38:14.945Z,1.20
2022-07-29T06:41:13.108Z,1.42
2022-07-29T06:43:50.372Z,1.75
2022-07-29T06:46:20.538Z,1.05
2022-07-29T06:48:49.848Z,1.08
2022-07-29T06:51:17.390Z,1.20
2022-07-29T06:53:59.930Z,1.30
2022-07-29T06:56:31.053Z,1.00
2022-07-29T06:58:58.043Z,0.90
2022-07-29T07:01:25.710Z,1.10
2022-07-29T07:03:52.277Z,1.10
2022-07-29T07:06:18.879Z,1.17
2022-07-29T07:08:45.668Z,1.08
2022-07-29T07:11:13.339Z,0.98
2022-07-29T07:13:39.967Z,1.10
2022-07-29T07:16:06.534Z,0.90
2022-07-29T07:18:33.137Z,0.75
2022-07-29T07:21:02.859Z,1.23
2022-07-29T07:23:30.943Z,1.25
2022-07-29T07:26:00.998Z,0.93
2022-07-29T07:28:27.930Z,1.30
2022-07-29T07:30:54.855Z,0.90
2022-07-29T07:33:21.731Z,1.02
2022-07-29T07:35:48.286Z,1.10
2022-07-29T07:38:16.197Z,1.30
2022-07-29T07:40:43.863Z,1.08
2022-07-29T07:43:10.368Z,0.90
2022-07-29T07:45:38.357Z,1.13
2022-07-29T07:48:06.869Z,1.03
2022-07-29T07:50:33.691Z,0.80
2022-07-29T07:53:00.507Z,0.90
2022-07-29T07:55:27.560Z,0.88
2022-07-29T07:57:57.494Z,1.00
2022-07-29T08:00:24.425Z,0.80
2022-07-29T08:02:51.801Z,0.82
2022-07-29T08:05:20.848Z,0.85
2022-07-29T08:07:48.723Z,0.90
2022-07-29T08:10:36.838Z,0.77
2022-07-29T08:13:08.092Z,1.17
2022-07-29T08:15:35.195Z,0.98
2022-07-29T08:18:07.917Z,0.90
2022-07-29T08:20:36.672Z,0.65
2022-07-29T08:23:05.406Z,0.80
2022-07-29T08:25:32.031Z,0.63
2022-07-29T08:28:02.464Z,0.60
2022-07-29T08:30:29.194Z,0.55
2022-07-29T08:32:56.331Z,0.90
2022-07-29T08:35:25.086Z,0.55
2022-07-29T08:37:52.512Z,0.55
2022-07-29T08:40:20.164Z,0.90
2022-07-29T08:42:57.405Z,0.93
2022-07-29T08:45:24.561Z,0.98
2022-07-29T08:47:51.189Z,0.70
2022-07-29T08:50:17.701Z,0.50
2022-07-29T08:52:44.625Z,0.70
2022-07-29T08:55:11.496Z,0.95
2022-07-29T08:57:40.095Z,0.80
2022-07-29T09:00:19.405Z,0.63
2022-07-29T09:05:15.147Z,0.88
2022-07-29T09:07:44.313Z,0.68
2022-07-29T09:10:11.401Z,0.70
2022-07-29T09:12:38.471Z,0.60
2022-07-29T09:15:05.582Z,0.40
2022-07-29T09:17:50.806Z,0.60
2022-07-29T09:20:19.843Z,0.60
2022-07-29T09:22:50.124Z,0.80
2022-07-29T09:25:35.881Z,0.40
2022-07-29T09:28:19.474Z,0.30
2022-07-29T09:30:57.863Z,0.50
2022-07-29T09:33:25.507Z,0.60
2022-07-29T09:36:06.656Z,0.50
2022-07-29T09:38:34.583Z,0.50
2022-07-29T09:43:32.945Z,0.68
2022-07-29T09:46:13.532Z,0.60
2022-07-29T09:48:40.448Z,0.50
2022-07-29T09:51:28.480Z,0.60
2022-07-29T09:54:28.788Z,0.52
2022-07-29T09:56:56.540Z,0.60
2022-07-29T09:59:27.332Z,0.95
2022-07-29T10:01:57.733Z,0.68
2022-07-29T10:04:24.566Z,1.55
2022-07-29T10:07:03.858Z,0.60
2022-07-29T10:09:31.399Z,0.60
2022-07-29T10:12:24.514Z,0.50
2022-07-29T10:14:52.293Z,0.85
2022-07-29T10:17:20.208Z,0.68
2022-07-29T10:19:48.130Z,2.17
2022-07-29T10:22:15.031Z,0.70
2022-07-29T10:24:41.715Z,0.50
2022-07-29T10:27:10.100Z,0.50
2022-07-29T10:32:09.840Z,0.73
2022-07-29T10:35:17.423Z,0.47
2022-07-29T10:38:20.925Z,0.63
2022-07-29T10:41:29.049Z,0.57
2022-07-29T10:46:41.561Z,0.70
2022-07-29T10:49:15.735Z,0.70
2022-07-29T10:51:51.642Z,0.43
2022-07-29T10:54:37.410Z,0.75
2022-07-29T10:57:53.544Z,0.65
2022-07-29T11:02:59.847Z,0.60
2022-07-29T11:05:31.981Z,0.47
2022-07-29T11:08:19.994Z,0.50
2022-07-29T11:10:52.051Z,0.50
2022-07-29T11:13:55.688Z,1.05
2022-07-29T11:16:24.928Z,0.82
2022-07-29T11:21:54.007Z,1.08
2022-07-29T11:24:32.977Z,0.57
2022-07-29T11:27:19.933Z,0.70
2022-07-29T11:30:01.148Z,0.57
2022-07-29T11:32:41.691Z,0.38
2022-07-29T11:35:17.817Z,0.57
2022-07-29T11:37:52.522Z,0.60
2022-07-29T11:42:59.317Z,0.80
2022-07-29T11:45:41.928Z,0.68
2022-07-29T11:48:29.126Z,0.60
2022-07-29T11:50:59.624Z,0.77
2022-07-29T11:58:44.099Z,0.80
2022-07-29T12:01:15.183Z,0.80
2022-07-29T12:03:43.733Z,0.80
2022-07-29T12:09:07.384Z,0.63
2022-07-29T12:11:38.005Z,1.00
2022-07-29T12:14:06.395Z,0.80
2022-07-29T12:16:38.214Z,0.80
2022-07-29T12:19:05.767Z,1.00
2022-07-29T12:21:59.433Z,1.15
2022-07-29T12:24:26.849Z,1.13
2022-07-29T12:27:00.544Z,0.70
2022-07-29T12:29:34.557Z,0.77
2022-07-29T12:32:03.084Z,1.00
2022-07-29T12:34:30.532Z,0.87
2022-07-29T12:36:57.178Z,1.15
2022-07-29T12:39:27.319Z,1.35
2022-07-29T12:41:54.349Z,1.35
2022-07-29T12:44:52.220Z,0.80
2022-07-29T12:47:20.797Z,1.20
2022-07-29T12:49:48.263Z,1.55
2022-07-29T12:52:28.135Z,1.63
2022-07-29T12:54:54.858Z,1.30
2022-07-29T12:57:21.969Z,1.05
2022-07-29T13:00:12.188Z,1.00
2022-07-29T13:02:40.633Z,0.98
2022-07-29T13:05:09.329Z,1.02
2022-07-29T13:10:25.004Z,1.20
2022-07-29T13:13:11.762Z,0.85
2022-07-29T13:15:40.082Z,0.80
2022-07-29T13:18:37.235Z,1.25
2022-07-29T13:21:14.873Z,1.38
2022-07-29T13:23:42.111Z,1.20
2022-07-29T13:26:12.638Z,1.20
2022-07-29T13:28:39.280Z,1.20
2022-07-29T13:31:06.101Z,1.40
2022-07-29T13:33:33.946Z,0.98
2022-07-29T13:36:00.514Z,1.00
2022-07-29T13:38:31.032Z,1.20
2022-07-29T13:40:58.399Z,1.88
2022-07-29T13:43:24.932Z,1.08
2022-07-29T13:45:51.456Z,1.50
2022-07-29T13:48:18.018Z,1.00
2022-07-29T13:50:44.885Z,1.73
2022-07-29T13:53:11.462Z,1.00
2022-07-29T13:55:44.995Z,1.48
2022-07-29T13:58:11.550Z,1.65
2022-07-29T14:00:38.071Z,1.33
2022-07-29T14:03:04.562Z,1.08
2022-07-29T14:05:31.094Z,1.42
2022-07-29T14:07:57.643Z,1.52
2022-07-29T14:10:24.375Z,1.27
2022-07-29T14:12:50.874Z,1.13
2022-07-29T14:15:18.283Z,1.38
2022-07-29T14:17:44.824Z,1.27
2022-07-29T14:20:11.347Z,1.40
2022-07-29T14:22:42.485Z,2.60
2022-07-29T14:25:14.219Z,1.13
2022-07-29T14:27:41.380Z,1.42
2022-07-29T14:30:09.342Z,1.67
2022-07-29T14:32:35.996Z,1.25
2022-07-29T14:35:02.554Z,2.40
2022-07-29T14:37:29.135Z,1.00
2022-07-29T14:40:07.109Z,1.17
2022-07-29T14:42:33.644Z,1.17
2022-07-29T14:45:00.216Z,1.10
2022-07-29T14:47:27.073Z,1.00
2022-07-29T14:49:53.735Z,1.40
2022-07-29T14:52:20.298Z,1.05
2022-07-29T14:54:46.881Z,1.50
2022-07-29T14:57:13.421Z,1.40
2022-07-29T14:59:41.998Z,1.20
2022-07-29T15:02:08.547Z,1.15
2022-07-29T15:04:35.573Z,1.30
2022-07-29T15:07:02.697Z,1.65
2022-07-29T15:09:29.339Z,1.75
2022-07-29T15:11:56.388Z,1.90
2022-07-29T15:14:23.230Z,3.22
2022-07-29T15:16:49.904Z,1.92
2022-07-29T15:21:48.714Z,1.40
2022-07-29T15:24:26.456Z,1.40
2022-07-29T15:26:53.011Z,1.40
2022-07-29T15:29:19.929Z,1.33
2022-07-29T15:31:46.522Z,1.17
2022-07-29T15:34:13.210Z,1.60
2022-07-29T15:36:52.044Z,1.45
2022-07-29T15:39:20.791Z,0.98
2022-07-29T15:41:47.547Z,1.50
2022-07-29T15:44:14.188Z,1.42
2022-07-29T15:47:00.440Z,1.17
2022-07-29T15:49:47.643Z,1.15
2022-07-29T15:52:17.283Z,1.58
2022-07-29T15:54:43.986Z,1.52
2022-07-29T15:57:10.916Z,2.83
2022-07-29T15:59:37.782Z,2.90
2022-07-29T16:02:05.922Z,1.88
2022-07-29T16:04:32.540Z,1.55
2022-07-29T16:06:59.426Z,2.17
2022-07-29T16:09:26.648Z,1.55
2022-07-29T16:11:54.374Z,1.70
2022-07-29T16:14:21.014Z,2.08
2022-07-29T16:16:48.706Z,1.42
2022-07-29T16:19:16.329Z,1.33
2022-07-29T16:21:43.873Z,3.08
2022-07-29T16:24:10.441Z,2.53
2022-07-29T16:26:37.012Z,2.13
2022-07-29T16:29:04.662Z,1.73
2022-07-29T16:31:31.390Z,1.50
2022-07-29T16:33:58.014Z,1.50
2022-07-29T16:36:24.652Z,2.10
2022-07-29T16:38:51.238Z,3.45
2022-07-29T16:41:17.847Z,2.85
2022-07-29T16:43:44.581Z,2.47
2022-07-29T16:46:15.676Z,1.50
2022-07-29T16:48:45.973Z,1.48
2022-07-29T16:51:14.402Z,1.35
2022-07-29T16:53:41.803Z,1.10
2022-07-29T16:56:11.824Z,1.02
2022-07-29T16:58:43.550Z,1.50
2022-07-29T17:01:14.363Z,10.10
2022-07-29T17:04:02.168Z,3.00
2022-07-29T17:06:32.721Z,2.38
2022-07-29T17:08:59.256Z,2.20
2022-07-29T17:11:52.426Z,0.98
2022-07-29T17:14:12.265Z,1.20
2022-07-29T17:16:38.865Z,1.92
2022-07-29T17:19:05.480Z,1.33
2022-07-29T17:21:32.074Z,1.38
2022-07-29T17:23:59.410Z,1.17
2022-07-29T17:26:28.212Z,0.95
2022-07-29T17:28:55.865Z,1.52
2022-07-29T17:31:23.381Z,1.27
2022-07-29T17:33:50.203Z,1.38
2022-07-29T17:36:26.915Z,1.42
2022-07-29T17:38:57.161Z,0.82
2022-07-29T17:41:24.749Z,1.50
2022-07-29T17:43:51.843Z,1.40
2022-07-29T17:46:19.406Z,1.70
2022-07-29T17:48:46.056Z,1.45
2022-07-29T17:51:12.864Z,1.42
2022-07-29T17:53:40.044Z,1.55
2022-07-29T17:56:08.233Z,2.20
2022-07-29T17:58:35.155Z,1.35
2022-07-29T18:01:01.935Z,1.42
2022-07-29T18:03:28.709Z,1.73
2022-07-29T18:05:55.332Z,1.60
2022-07-29T18:08:22.075Z,1.23
2022-07-29T18:10:49.152Z,1.20
2022-07-29T18:13:18.746Z,1.10
2022-07-29T18:15:49.360Z,1.60
2022-07-29T18:18:18.304Z,1.33
2022-07-29T18:20:49.113Z,1.83
2022-07-29T18:23:17.476Z,1.20
2022-07-29T18:25:44.061Z,1.45
2022-07-29T18:28:10.648Z,1.60
2022-07-29T18:30:38.041Z,1.38
2022-07-29T18:33:21.668Z,1.55
2022-07-29T18:35:50.989Z,1.40
2022-07-29T18:38:17.709Z,1.73
2022-07-29T18:40:45.678Z,1.70
2022-07-29T18:43:13.438Z,1.40
2022-07-29T18:45:40.060Z,1.27
2022-07-29T18:48:13.187Z,1.63
2022-07-29T18:50:41.305Z,1.40
2022-07-29T18:53:08.272Z,1.45
2022-07-29T18:55:34.881Z,1.50
2022-07-29T18:58:01.468Z,1.45
2022-07-29T19:00:28.206Z,1.73
2022-07-29T19:02:55.608Z,1.45
2022-07-29T19:05:23.101Z,1.65
2022-07-29T19:07:49.780Z,1.52
2022-07-29T19:10:16.626Z,1.92
2022-07-29T19:12:44.961Z,2.00
2022-07-29T19:15:11.596Z,2.08
2022-07-29T19:17:39.366Z,2.25
2022-07-29T19:20:07.393Z,1.65
2022-07-29T19:22:34.511Z,1.85
2022-07-29T19:25:01.765Z,1.80
2022-07-29T19:27:29.674Z,2.08
2022-07-29T19:29:59.190Z,1.50
2022-07-29T19:35:14.445Z,1.60
2022-07-29T19:37:41.202Z,1.83
2022-07-29T19:40:07.994Z,2.00
2022-07-29T19:42:34.541Z,2.30
2022-07-29T19:45:04.890Z,2.42
2022-07-29T19:47:34.198Z,4.07
2022-07-29T19:50:01.179Z,4.25
2022-07-29T19:52:28.196Z,2.42
2022-07-29T19:54:55.092Z,2.08
2022-07-29T19:57:25.108Z,2.53
2022-07-29T19:59:53.922Z,2.88
2022-07-29T20:02:23.182Z,1.90
2022-07-29T20:04:50.015Z,2.65
2022-07-29T20:07:16.612Z,2.38
2022-07-29T20:09:46.131Z,2.03
2022-07-29T20:12:14.781Z,2.55
2022-07-29T20:14:41.628Z,2.75
2022-07-29T20:17:08.297Z,2.38
2022-07-29T20:19:35.499Z,2.20
2022-07-29T20:22:02.696Z,2.35
2022-07-29T20:24:29.254Z,2.63
2022-07-29T20:26:57.409Z,1.92
2022-07-29T20:29:24.095Z,2.53
2022-07-29T20:31:53.526Z,2.28
2022-07-29T20:34:23.175Z,2.85
2022-07-29T20:36:50.174Z,2.78
2022-07-29T20:39:16.739Z,2.67
2022-07-29T20:41:44.450Z,2.10
2022-07-29T20:44:11.140Z,1.75
2022-07-29T20:46:39.425Z,2.42
2022-07-29T20:49:06.221Z,2.28
2022-07-29T20:51:43.761Z,2.60
2022-07-29T20:54:11.257Z,2.10
2022-07-29T20:56:38.202Z,2.30
2022-07-29T20:59:04.826Z,2.35
2022-07-29T21:01:31.906Z,2.63
2022-07-29T21:03:58.482Z,2.25
2022-07-29T21:06:25.109Z,2.28
2022-07-29T21:08:51.753Z,2.10
2022-07-29T21:11:18.284Z,2.50
2022-07-29T21:14:04.806Z,2.60
2022-07-29T21:16:33.581Z,2.38
2022-07-29T21:19:00.180Z,2.42
2022-07-29T21:21:26.899Z,2.58
2022-07-29T21:23:53.501Z,2.13
2022-07-29T21:26:20.079Z,2.55
2022-07-29T21:28:47.664Z,2.67
2022-07-29T21:31:17.301Z,2.50
2022-07-29T21:33:46.481Z,2.17
2022-07-29T21:36:47.662Z,2.80
2022-07-29T21:39:06.779Z,2.63
2022-07-29T21:41:34.489Z,2.92
2022-07-29T21:44:01.437Z,3.15
2022-07-29T21:46:28.163Z,3.28
2022-07-29T21:48:54.869Z,2.88
2022-07-29T21:51:21.411Z,3.10
2022-07-29T21:53:48.000Z,3.22
2022-07-29T21:56:15.296Z,3.10
2022-07-29T21:58:44.585Z,2.70
2022-07-29T22:01:12.764Z,2.38
2022-07-29T22:03:39.365Z,2.75
2022-07-29T22:06:05.977Z,2.10
2022-07-29T22:08:32.969Z,2.90
2022-07-29T22:10:59.519Z,1.88
2022-07-29T22:13:26.511Z,2.28
2022-07-29T22:15:53.051Z,2.10
2022-07-29T22:18:20.999Z,3.13
2022-07-29T22:20:48.820Z,1.88
2022-07-29T22:23:15.323Z,2.55
2022-07-29T22:25:41.987Z,2.17
2022-07-29T22:28:08.499Z,2.22
2022-07-29T22:30:35.211Z,2.42
2022-07-29T22:33:01.782Z,1.77
2022-07-29T22:35:28.469Z,2.30
2022-07-29T22:37:55.090Z,2.00
2022-07-29T22:40:22.551Z,2.33
2022-07-29T22:42:57.078Z,1.70
2022-07-29T22:45:23.789Z,1.70
2022-07-29T22:47:52.442Z,1.75
2022-07-29T22:50:26.367Z,1.73
2022-07-29T22:52:52.909Z,1.55
2022-07-29T22:55:19.499Z,1.40
2022-07-29T22:57:46.616Z,1.92
2022-07-29T23:00:13.707Z,1.67
2022-07-29T23:02:41.843Z,1.60
2022-07-29T23:05:09.049Z,1.38
2022-07-29T23:07:36.090Z,1.42
2022-07-29T23:10:05.711Z,1.70
2022-07-29T23:12:33.534Z,1.35
2022-07-29T23:15:00.197Z,1.60
2022-07-29T23:17:26.707Z,1.75
2022-07-29T23:19:53.358Z,1.23
2022-07-29T23:22:19.895Z,1.42
2022-07-29T23:24:46.867Z,1.30
2022-07-29T23:27:13.356Z,1.33
2022-07-29T23:29:42.248Z,1.45
2022-07-29T23:32:09.431Z,1.70
2022-07-29T23:34:35.942Z,1.77
2022-07-29T23:37:02.933Z,1.35
2022-07-29T23:39:29.697Z,1.50
2022-07-29T23:41:56.532Z,1.15
2022-07-29T23:44:25.663Z,1.27
2022-07-29T23:46:52.538Z,1.87
2022-07-29T23:49:20.123Z,1.10
2022-07-29T23:51:46.753Z,1.58
2022-07-29T23:54:13.297Z,1.50
2022-07-29T23:56:39.840Z,1.42
2022-07-29T23:59:06.465Z,1.98
